sensor_id;sensor_type;location;lat;lon;timestamp;pressure;altitude;pressure_sealevel;temperature;humidity
3096;BME280;1558;42.700;23.360;2023-04-09T00:02:00;95552.13;;;5.82;100.00
3096;BME280;1558;42.700;23.360;2023-04-09T00:04:28;95557.47;;;5.82;100.00
3096;BME280;1558;42.700;23.360;2023-04-09T00:06:57;95552.66;;;5.84;100.00
3096;BME280;1558;42.700;23.360;2023-04-09T00:09:25;95560.69;;;5.84;100.00
3096;BME280;1558;42.700;23.360;2023-04-09T00:11:54;95558.78;;;5.85;100.00
3096;BME280;1558;42.700;23.360;2023-04-09T00:14:23;95565.16;;;5.89;100.00
3096;BME280;1558;42.700;23.360;2023-04-09T00:16:51;95564.75;;;5.95;100.00
3096;BME280;1558;42.700;23.360;2023-04-09T00:19:19;95561.50;;;5.98;100.00
3096;BME280;1558;42.700;23.360;2023-04-09T00:21:47;95563.56;;;6.01;100.00
3096;BME280;1558;42.700;23.360;2023-04-09T00:24:15;95569.31;;;5.95;100.00
3096;BME280;1558;42.700;23.360;2023-04-09T00:26:43;95568.72;;;5.98;100.00
3096;BME280;1558;42.700;23.360;2023-04-09T00:29:12;95566.53;;;6.00;100.00
3096;BME280;1558;42.700;23.360;2023-04-09T00:31:40;95567.94;;;5.97;100.00
3096;BME280;1558;42.700;23.360;2023-04-09T00:34:08;95570.91;;;5.96;100.00
3096;BME280;1558;42.700;23.360;2023-04-09T00:36:37;95568.25;;;5.96;100.00
3096;BME280;1558;42.700;23.360;2023-04-09T00:39:05;95571.19;;;5.94;100.00
3096;BME280;1558;42.700;23.360;2023-04-09T00:41:33;95562.38;;;5.94;100.00
3096;BME280;1558;42.700;23.360;2023-04-09T00:44:01;95561.38;;;5.90;100.00
3096;BME280;1558;42.700;23.360;2023-04-09T00:46:31;95559.50;;;5.90;100.00
3096;BME280;1558;42.700;23.360;2023-04-09T00:48:59;95556.81;;;5.90;100.00
3096;BME280;1558;42.700;23.360;2023-04-09T00:51:27;95554.81;;;5.82;100.00
3096;BME280;1558;42.700;23.360;2023-04-09T00:53:55;95552.56;;;5.89;100.00
3096;BME280;1558;42.700;23.360;2023-04-09T00:56:23;95559.34;;;5.82;100.00
3096;BME280;1558;42.700;23.360;2023-04-09T00:58:51;95546.47;;;5.84;100.00
3096;BME280;1558;42.700;23.360;2023-04-09T01:01:20;95558.50;;;5.86;100.00
3096;BME280;1558;42.700;23.360;2023-04-09T01:03:49;95546.25;;;5.80;100.00
3096;BME280;1558;42.700;23.360;2023-04-09T01:06:25;95562.47;;;5.89;100.00
3096;BME280;1558;42.700;23.360;2023-04-09T01:08:59;95556.63;;;5.87;100.00
3096;BME280;1558;42.700;23.360;2023-04-09T01:11:35;95549.69;;;5.86;100.00
3096;BME280;1558;42.700;23.360;2023-04-09T01:14:10;95560.41;;;5.99;100.00
3096;BME280;1558;42.700;23.360;2023-04-09T01:16:41;95567.84;;;6.02;100.00
3096;BME280;1558;42.700;23.360;2023-04-09T01:19:23;95565.75;;;5.99;100.00
3096;BME280;1558;42.700;23.360;2023-04-09T01:21:59;95564.75;;;5.95;100.00
3096;BME280;1558;42.700;23.360;2023-04-09T01:24:35;95559.41;;;5.95;100.00
3096;BME280;1558;42.700;23.360;2023-04-09T01:27:08;95574.88;;;5.98;100.00
3096;BME280;1558;42.700;23.360;2023-04-09T01:29:44;95565.16;;;6.02;100.00
3096;BME280;1558;42.700;23.360;2023-04-09T01:32:15;95562.97;;;6.04;100.00
3096;BME280;1558;42.700;23.360;2023-04-09T01:34:46;95566.69;;;6.08;100.00
3096;BME280;1558;42.700;23.360;2023-04-09T01:37:15;95577.25;;;6.13;100.00
3096;BME280;1558;42.700;23.360;2023-04-09T01:39:44;95569.13;;;6.05;100.00
3096;BME280;1558;42.700;23.360;2023-04-09T01:42:14;95570.53;;;6.02;100.00
3096;BME280;1558;42.700;23.360;2023-04-09T01:44:45;95573.59;;;6.09;100.00
3096;BME280;1558;42.700;23.360;2023-04-09T01:47:13;95574.59;;;6.13;100.00
3096;BME280;1558;42.700;23.360;2023-04-09T01:49:42;95572.31;;;6.21;100.00
3096;BME280;1558;42.700;23.360;2023-04-09T01:52:10;95564.97;;;6.12;100.00
3096;BME280;1558;42.700;23.360;2023-04-09T01:54:39;95570.16;;;6.23;100.00
3096;BME280;1558;42.700;23.360;2023-04-09T01:57:07;95541.06;;;6.02;100.00
3096;BME280;1558;42.700;23.360;2023-04-09T01:59:34;95567.66;;;6.26;100.00
3096;BME280;1558;42.700;23.360;2023-04-09T02:02:08;95567.34;;;6.28;100.00
3096;BME280;1558;42.700;23.360;2023-04-09T02:04:40;95563.59;;;6.29;100.00
3096;BME280;1558;42.700;23.360;2023-04-09T02:07:14;95567.25;;;6.33;100.00
3096;BME280;1558;42.700;23.360;2023-04-09T02:09:46;95564.50;;;6.38;100.00
3096;BME280;1558;42.700;23.360;2023-04-09T02:12:17;95567.75;;;6.35;100.00
3096;BME280;1558;42.700;23.360;2023-04-09T02:14:45;95563.00;;;6.32;100.00
3096;BME280;1558;42.700;23.360;2023-04-09T02:17:17;95570.34;;;6.26;100.00
3096;BME280;1558;42.700;23.360;2023-04-09T02:19:46;95558.25;;;6.15;100.00
3096;BME280;1558;42.700;23.360;2023-04-09T02:22:15;95564.28;;;6.21;100.00
3096;BME280;1558;42.700;23.360;2023-04-09T02:24:45;95554.69;;;6.20;100.00
3096;BME280;1558;42.700;23.360;2023-04-09T02:27:13;95566.69;;;6.22;100.00
3096;BME280;1558;42.700;23.360;2023-04-09T02:29:41;95564.59;;;6.19;100.00
3096;BME280;1558;42.700;23.360;2023-04-09T02:32:09;95564.59;;;6.19;100.00
3096;BME280;1558;42.700;23.360;2023-04-09T02:34:39;95564.00;;;6.22;100.00
3096;BME280;1558;42.700;23.360;2023-04-09T02:37:07;95565.56;;;6.09;100.00
3096;BME280;1558;42.700;23.360;2023-04-09T02:39:35;95570.34;;;6.12;100.00
3096;BME280;1558;42.700;23.360;2023-04-09T02:42:03;95565.38;;;6.20;100.00
3096;BME280;1558;42.700;23.360;2023-04-09T02:44:33;95569.13;;;6.19;100.00
3096;BME280;1558;42.700;23.360;2023-04-09T02:47:01;95565.47;;;6.14;100.00
3096;BME280;1558;42.700;23.360;2023-04-09T02:49:29;95559.72;;;6.07;100.00
3096;BME280;1558;42.700;23.360;2023-04-09T02:51:58;95575.09;;;6.16;100.00
3096;BME280;1558;42.700;23.360;2023-04-09T02:54:26;95554.38;;;6.07;100.00
3096;BME280;1558;42.700;23.360;2023-04-09T02:56:54;95552.00;;;6.20;100.00
3096;BME280;1558;42.700;23.360;2023-04-09T02:59:23;95564.59;;;6.19;100.00
3096;BME280;1558;42.700;23.360;2023-04-09T03:01:51;95537.19;;;5.95;100.00
3096;BME280;1558;42.700;23.360;2023-04-09T03:04:19;95558.13;;;6.06;100.00
3096;BME280;1558;42.700;23.360;2023-04-09T03:06:47;95561.41;;;6.03;100.00
3096;BME280;1558;42.700;23.360;2023-04-09T03:09:18;95555.44;;;6.06;100.00
3096;BME280;1558;42.700;23.360;2023-04-09T03:11:46;95554.75;;;6.01;100.00
3096;BME280;1558;42.700;23.360;2023-04-09T03:14:14;95555.66;;;5.96;100.00
3096;BME280;1558;42.700;23.360;2023-04-09T03:16:42;95561.00;;;5.96;100.00
3096;BME280;1558;42.700;23.360;2023-04-09T03:19:10;95557.13;;;5.89;100.00
3096;BME280;1558;42.700;23.360;2023-04-09T03:21:38;95548.88;;;5.85;100.00
3096;BME280;1558;42.700;23.360;2023-04-09T03:24:06;95548.25;;;5.75;100.00
3096;BME280;1558;42.700;23.360;2023-04-09T03:26:35;95554.38;;;5.75;100.00
3096;BME280;1558;42.700;23.360;2023-04-09T03:29:04;95557.03;;;5.75;100.00
3096;BME280;1558;42.700;23.360;2023-04-09T03:31:32;95552.09;;;5.69;100.00
3096;BME280;1558;42.700;23.360;2023-04-09T03:34:01;95558.66;;;5.76;100.00
3096;BME280;1558;42.700;23.360;2023-04-09T03:36:28;95555.63;;;5.64;100.00
3096;BME280;1558;42.700;23.360;2023-04-09T03:38:57;95567.44;;;5.63;100.00
3096;BME280;1558;42.700;23.360;2023-04-09T03:41:26;95552.84;;;5.56;100.00
3096;BME280;1558;42.700;23.360;2023-04-09T03:43:55;95568.44;;;5.67;100.00
3096;BME280;1558;42.700;23.360;2023-04-09T03:46:23;95558.31;;;5.64;100.00
3096;BME280;1558;42.700;23.360;2023-04-09T03:48:51;95559.50;;;5.58;100.00
3096;BME280;1558;42.700;23.360;2023-04-09T03:51:20;95565.03;;;5.62;100.00
3096;BME280;1558;42.700;23.360;2023-04-09T03:53:48;95563.25;;;5.57;100.00
3096;BME280;1558;42.700;23.360;2023-04-09T03:56:16;95564.25;;;5.61;100.00
3096;BME280;1558;42.700;23.360;2023-04-09T03:58:44;95568.53;;;5.62;100.00
3096;BME280;1558;42.700;23.360;2023-04-09T04:01:15;95574.28;;;5.69;100.00
3096;BME280;1558;42.700;23.360;2023-04-09T04:03:43;95576.97;;;5.69;100.00
3096;BME280;1558;42.700;23.360;2023-04-09T04:06:11;95574.69;;;5.76;100.00
3096;BME280;1558;42.700;23.360;2023-04-09T04:08:39;95578.56;;;5.70;100.00
3096;BME280;1558;42.700;23.360;2023-04-09T04:11:07;95577.19;;;5.73;100.00
3096;BME280;1558;42.700;23.360;2023-04-09T04:13:35;95584.28;;;5.64;100.00
3096;BME280;1558;42.700;23.360;2023-04-09T04:16:06;95575.16;;;5.65;100.00
3096;BME280;1558;42.700;23.360;2023-04-09T04:18:36;95582.41;;;5.64;100.00
3096;BME280;1558;42.700;23.360;2023-04-09T04:21:04;95581.72;;;5.72;100.00
3096;BME280;1558;42.700;23.360;2023-04-09T04:23:33;95574.19;;;5.74;100.00
3096;BME280;1558;42.700;23.360;2023-04-09T04:26:01;95579.47;;;5.79;100.00
3096;BME280;1558;42.700;23.360;2023-04-09T04:28:35;95576.44;;;5.86;100.00
3096;BME280;1558;42.700;23.360;2023-04-09T04:31:06;95585.19;;;5.91;100.00
3096;BME280;1558;42.700;23.360;2023-04-09T04:33:36;95581.41;;;5.92;100.00
3096;BME280;1558;42.700;23.360;2023-04-09T04:36:05;95576.13;;;5.87;100.00
3096;BME280;1558;42.700;23.360;2023-04-09T04:38:34;95583.59;;;5.90;100.00
3096;BME280;1558;42.700;23.360;2023-04-09T04:41:02;95581.47;;;5.87;100.00
3096;BME280;1558;42.700;23.360;2023-04-09T04:43:30;95568.28;;;5.77;100.00
3096;BME280;1558;42.700;23.360;2023-04-09T04:45:58;95584.56;;;5.94;100.00
3096;BME280;1558;42.700;23.360;2023-04-09T04:48:27;95585.09;;;5.96;100.00
3096;BME280;1558;42.700;23.360;2023-04-09T04:50:59;95590.56;;;6.05;100.00
3096;BME280;1558;42.700;23.360;2023-04-09T04:53:27;95592.84;;;6.11;100.00
3096;BME280;1558;42.700;23.360;2023-04-09T04:55:55;95591.94;;;6.16;100.00
3096;BME280;1558;42.700;23.360;2023-04-09T04:58:23;95587.50;;;6.25;100.00
3096;BME280;1558;42.700;23.360;2023-04-09T05:00:52;95589.00;;;6.31;100.00
3096;BME280;1558;42.700;23.360;2023-04-09T05:03:20;95593.75;;;6.48;100.00
3096;BME280;1558;42.700;23.360;2023-04-09T05:05:50;95595.53;;;6.66;100.00
3096;BME280;1558;42.700;23.360;2023-04-09T05:08:20;95600.28;;;6.82;100.00
3096;BME280;1558;42.700;23.360;2023-04-09T05:10:48;95559.41;;;6.77;100.00
3096;BME280;1558;42.700;23.360;2023-04-09T05:13:16;95562.50;;;7.06;100.00
3096;BME280;1558;42.700;23.360;2023-04-09T05:15:45;95581.47;;;7.68;100.00
3096;BME280;1558;42.700;23.360;2023-04-09T05:18:13;95593.53;;;7.79;100.00
3096;BME280;1558;42.700;23.360;2023-04-09T05:20:41;95593.66;;;7.74;100.00
3096;BME280;1558;42.700;23.360;2023-04-09T05:23:09;95590.97;;;7.96;100.00
3096;BME280;1558;42.700;23.360;2023-04-09T05:25:39;95581.53;;;8.07;100.00
3096;BME280;1558;42.700;23.360;2023-04-09T05:28:07;95601.94;;;7.86;100.00
3096;BME280;1558;42.700;23.360;2023-04-09T05:30:36;95601.03;;;7.68;100.00
3096;BME280;1558;42.700;23.360;2023-04-09T05:33:04;95589.75;;;7.58;100.00
3096;BME280;1558;42.700;23.360;2023-04-09T05:35:32;95594.34;;;7.57;100.00
3096;BME280;1558;42.700;23.360;2023-04-09T05:38:04;95596.97;;;7.48;100.00
3096;BME280;1558;42.700;23.360;2023-04-09T05:40:33;95591.22;;;7.41;100.00
3096;BME280;1558;42.700;23.360;2023-04-09T05:43:04;95587.91;;;7.44;100.00
3096;BME280;1558;42.700;23.360;2023-04-09T05:45:32;95590.19;;;7.51;100.00
3096;BME280;1558;42.700;23.360;2023-04-09T05:48:01;95584.88;;;7.60;100.00
3096;BME280;1558;42.700;23.360;2023-04-09T05:50:29;95577.44;;;7.57;100.00
3096;BME280;1558;42.700;23.360;2023-04-09T05:53:09;95590.84;;;7.79;100.00
3096;BME280;1558;42.700;23.360;2023-04-09T05:55:38;95588.53;;;7.86;100.00
3096;BME280;1558;42.700;23.360;2023-04-09T05:58:08;95546.13;;;7.74;100.00
3096;BME280;1558;42.700;23.360;2023-04-09T06:00:36;95583.75;;;8.05;100.00
3096;BME280;1558;42.700;23.360;2023-04-09T06:03:04;95591.66;;;8.10;100.00
3096;BME280;1558;42.700;23.360;2023-04-09T06:05:32;95550.69;;;7.74;100.00
3096;BME280;1558;42.700;23.360;2023-04-09T06:08:00;95589.72;;;8.02;100.00
3096;BME280;1558;42.700;23.360;2023-04-09T06:10:32;95591.31;;;8.03;100.00
3096;BME280;1558;42.700;23.360;2023-04-09T06:13:00;95549.63;;;7.75;100.00
3096;BME280;1558;42.700;23.360;2023-04-09T06:15:29;95588.78;;;8.06;100.00
3096;BME280;1558;42.700;23.360;2023-04-09T06:17:57;95548.72;;;7.88;100.00
3096;BME280;1558;42.700;23.360;2023-04-09T06:20:25;95591.47;;;8.06;100.00
3096;BME280;1558;42.700;23.360;2023-04-09T06:22:53;95592.03;;;8.17;100.00
3096;BME280;1558;42.700;23.360;2023-04-09T06:25:21;95598.38;;;8.52;100.00
3096;BME280;1558;42.700;23.360;2023-04-09T06:27:50;95576.84;;;8.52;100.00
3096;BME280;1558;42.700;23.360;2023-04-09T06:30:18;95593.00;;;8.52;100.00
3096;BME280;1558;42.700;23.360;2023-04-09T06:32:47;95541.22;;;8.29;100.00
3096;BME280;1558;42.700;23.360;2023-04-09T06:35:20;95596.06;;;8.67;100.00
3096;BME280;1558;42.700;23.360;2023-04-09T06:37:49;95590.97;;;8.66;100.00
3096;BME280;1558;42.700;23.360;2023-04-09T06:40:17;95593.22;;;8.72;100.00
3096;BME280;1558;42.700;23.360;2023-04-09T06:42:48;95589.97;;;8.45;100.00
3096;BME280;1558;42.700;23.360;2023-04-09T06:45:17;95543.81;;;8.12;100.00
3096;BME280;1558;42.700;23.360;2023-04-09T06:47:46;95589.81;;;8.41;100.00
3096;BME280;1558;42.700;23.360;2023-04-09T06:50:15;95607.75;;;8.32;100.00
3096;BME280;1558;42.700;23.360;2023-04-09T06:52:43;95605.41;;;8.39;100.00
3096;BME280;1558;42.700;23.360;2023-04-09T06:55:11;95607.22;;;8.52;100.00
3096;BME280;1558;42.700;23.360;2023-04-09T06:57:39;95592.19;;;8.51;100.00
3096;BME280;1558;42.700;23.360;2023-04-09T07:00:08;95604.59;;;8.69;100.00
3096;BME280;1558;42.700;23.360;2023-04-09T07:02:37;95613.22;;;8.89;100.00
3096;BME280;1558;42.700;23.360;2023-04-09T07:05:07;95615.44;;;9.04;100.00
3096;BME280;1558;42.700;23.360;2023-04-09T07:07:35;95600.28;;;9.08;100.00
3096;BME280;1558;42.700;23.360;2023-04-09T07:10:05;95598.53;;;9.20;100.00
3096;BME280;1558;42.700;23.360;2023-04-09T07:12:33;95604.53;;;9.09;100.00
3096;BME280;1558;42.700;23.360;2023-04-09T07:15:04;95608.53;;;9.28;100.00
3096;BME280;1558;42.700;23.360;2023-04-09T07:17:34;95606.00;;;9.40;100.00
3096;BME280;1558;42.700;23.360;2023-04-09T07:20:03;95594.28;;;9.45;100.00
3096;BME280;1558;42.700;23.360;2023-04-09T07:22:32;95603.31;;;9.40;100.00
3096;BME280;1558;42.700;23.360;2023-04-09T07:25:00;95608.81;;;9.10;100.00
3096;BME280;1558;42.700;23.360;2023-04-09T07:27:29;95601.88;;;9.17;100.00
3096;BME280;1558;42.700;23.360;2023-04-09T07:29:58;95584.13;;;9.25;100.00
3096;BME280;1558;42.700;23.360;2023-04-09T07:32:26;95620.41;;;9.36;100.00
3096;BME280;1558;42.700;23.360;2023-04-09T07:34:55;95568.94;;;9.12;100.00
3096;BME280;1558;42.700;23.360;2023-04-09T07:37:25;95611.38;;;9.49;100.00
3096;BME280;1558;42.700;23.360;2023-04-09T07:39:55;95478.72;;;8.80;100.00
3096;BME280;1558;42.700;23.360;2023-04-09T07:42:23;95600.78;;;9.35;100.00
3096;BME280;1558;42.700;23.360;2023-04-09T07:44:51;95630.38;;;9.27;100.00
3096;BME280;1558;42.700;23.360;2023-04-09T07:47:21;95604.34;;;8.97;100.00
3096;BME280;1558;42.700;23.360;2023-04-09T07:49:49;95618.13;;;9.04;100.00
3096;BME280;1558;42.700;23.360;2023-04-09T07:52:17;95627.03;;;9.13;100.00
3096;BME280;1558;42.700;23.360;2023-04-09T07:54:46;95571.59;;;8.95;100.00
3096;BME280;1558;42.700;23.360;2023-04-09T07:57:16;95620.88;;;9.21;100.00
3096;BME280;1558;42.700;23.360;2023-04-09T07:59:44;95625.13;;;9.13;100.00
3096;BME280;1558;42.700;23.360;2023-04-09T08:02:14;95628.94;;;9.12;100.00
3096;BME280;1558;42.700;23.360;2023-04-09T08:04:43;95632.72;;;9.11;100.00
3096;BME280;1558;42.700;23.360;2023-04-09T08:07:11;95574.72;;;8.71;100.00
3096;BME280;1558;42.700;23.360;2023-04-09T08:09:39;95641.25;;;9.13;100.00
3096;BME280;1558;42.700;23.360;2023-04-09T08:12:07;95620.53;;;9.14;100.00
3096;BME280;1558;42.700;23.360;2023-04-09T08:14:38;95616.44;;;9.16;100.00
3096;BME280;1558;42.700;23.360;2023-04-09T08:17:06;95641.16;;;9.35;100.00
3096;BME280;1558;42.700;23.360;2023-04-09T08:19:35;95634.34;;;9.38;100.00
3096;BME280;1558;42.700;23.360;2023-04-09T08:22:20;95634.19;;;9.43;100.00
3096;BME280;1558;42.700;23.360;2023-04-09T08:24:50;95622.00;;;9.37;100.00
3096;BME280;1558;42.700;23.360;2023-04-09T08:27:18;95632.47;;;9.38;100.00
3096;BME280;1558;42.700;23.360;2023-04-09T08:29:49;95632.63;;;9.50;100.00
3096;BME280;1558;42.700;23.360;2023-04-09T08:32:17;95638.31;;;9.40;100.00
3096;BME280;1558;42.700;23.360;2023-04-09T08:34:45;95644.66;;;9.36;100.00
3096;BME280;1558;42.700;23.360;2023-04-09T08:37:13;95632.59;;;9.42;100.00
3096;BME280;1558;42.700;23.360;2023-04-09T08:39:42;95633.72;;;9.75;100.00
3096;BME280;1558;42.700;23.360;2023-04-09T08:42:11;95592.69;;;9.61;100.00
3096;BME280;1558;42.700;23.360;2023-04-09T08:44:45;95654.19;;;9.93;100.00
3096;BME280;1558;42.700;23.360;2023-04-09T08:47:14;95624.03;;;9.91;100.00
3096;BME280;1558;42.700;23.360;2023-04-09T08:49:43;95588.56;;;9.89;100.00
3096;BME280;1558;42.700;23.360;2023-04-09T08:52:11;95620.06;;;10.23;100.00
3096;BME280;1558;42.700;23.360;2023-04-09T08:54:42;95601.88;;;10.11;100.00
3096;BME280;1558;42.700;23.360;2023-04-09T08:57:11;95632.41;;;10.33;98.46
3096;BME280;1558;42.700;23.360;2023-04-09T08:59:39;95563.19;;;10.54;98.51
3096;BME280;1558;42.700;23.360;2023-04-09T09:02:08;95628.91;;;11.16;91.05
3096;BME280;1558;42.700;23.360;2023-04-09T09:04:45;95600.13;;;11.20;91.06
3096;BME280;1558;42.700;23.360;2023-04-09T09:07:14;95602.34;;;10.98;90.36
3096;BME280;1558;42.700;23.360;2023-04-09T09:09:50;95606.38;;;10.37;91.64
3096;BME280;1558;42.700;23.360;2023-04-09T09:12:37;95594.75;;;10.53;95.33
3096;BME280;1558;42.700;23.360;2023-04-09T09:15:24;95578.91;;;10.52;93.04
3096;BME280;1558;42.700;23.360;2023-04-09T09:17:54;95603.22;;;10.72;92.66
3096;BME280;1558;42.700;23.360;2023-04-09T09:20:24;95603.56;;;10.71;91.67
3096;BME280;1558;42.700;23.360;2023-04-09T09:22:54;95551.41;;;10.20;94.37
3096;BME280;1558;42.700;23.360;2023-04-09T09:25:23;95574.56;;;10.22;94.62
3096;BME280;1558;42.700;23.360;2023-04-09T09:27:52;95607.00;;;10.42;95.05
3096;BME280;1558;42.700;23.360;2023-04-09T09:30:21;95600.25;;;10.65;96.14
3096;BME280;1558;42.700;23.360;2023-04-09T09:32:51;95577.59;;;11.16;92.46
3096;BME280;1558;42.700;23.360;2023-04-09T09:35:20;95594.50;;;11.75;83.97
3096;BME280;1558;42.700;23.360;2023-04-09T09:38:01;95593.84;;;11.57;87.02
3096;BME280;1558;42.700;23.360;2023-04-09T09:40:30;95590.50;;;11.93;85.21
3096;BME280;1558;42.700;23.360;2023-04-09T09:42:58;95564.09;;;12.11;83.68
3096;BME280;1558;42.700;23.360;2023-04-09T09:45:28;95545.56;;;11.89;82.64
3096;BME280;1558;42.700;23.360;2023-04-09T09:47:57;95565.50;;;12.29;82.90
3096;BME280;1558;42.700;23.360;2023-04-09T09:50:27;95575.97;;;13.12;81.40
3096;BME280;1558;42.700;23.360;2023-04-09T09:53:03;95564.84;;;14.24;75.23
3096;BME280;1558;42.700;23.360;2023-04-09T09:55:32;95569.88;;;13.94;68.97
3096;BME280;1558;42.700;23.360;2023-04-09T09:58:03;95554.31;;;14.07;68.16
3096;BME280;1558;42.700;23.360;2023-04-09T10:00:39;95562.31;;;13.48;67.32
3096;BME280;1558;42.700;23.360;2023-04-09T10:03:11;95535.34;;;14.07;65.83
3096;BME280;1558;42.700;23.360;2023-04-09T10:05:41;95551.22;;;13.13;67.48
3096;BME280;1558;42.700;23.360;2023-04-09T10:08:11;95570.06;;;12.98;67.11
3096;BME280;1558;42.700;23.360;2023-04-09T10:10:40;95510.06;;;12.35;71.45
3096;BME280;1558;42.700;23.360;2023-04-09T10:13:13;95555.19;;;13.55;70.91
3096;BME280;1558;42.700;23.360;2023-04-09T10:15:43;95487.44;;;13.28;67.13
3096;BME280;1558;42.700;23.360;2023-04-09T10:18:12;95546.38;;;13.86;67.98
3096;BME280;1558;42.700;23.360;2023-04-09T10:20:44;95545.50;;;14.69;64.96
3096;BME280;1558;42.700;23.360;2023-04-09T10:23:26;95478.75;;;14.37;64.10
3096;BME280;1558;42.700;23.360;2023-04-09T10:25:58;95528.47;;;14.41;64.07
3096;BME280;1558;42.700;23.360;2023-04-09T10:28:26;95549.84;;;14.89;61.90
3096;BME280;1558;42.700;23.360;2023-04-09T10:30:54;95551.81;;;14.30;62.11
3096;BME280;1558;42.700;23.360;2023-04-09T10:33:24;95514.47;;;13.52;64.74
3096;BME280;1558;42.700;23.360;2023-04-09T10:35:54;95505.44;;;13.76;64.87
3096;BME280;1558;42.700;23.360;2023-04-09T10:38:36;95488.22;;;13.56;65.50
3096;BME280;1558;42.700;23.360;2023-04-09T10:41:09;95533.63;;;13.59;65.15
3096;BME280;1558;42.700;23.360;2023-04-09T10:43:40;95527.84;;;13.33;65.88
3096;BME280;1558;42.700;23.360;2023-04-09T10:46:26;95515.13;;;12.49;66.41
3096;BME280;1558;42.700;23.360;2023-04-09T10:49:10;95483.78;;;12.84;66.47
3096;BME280;1558;42.700;23.360;2023-04-09T10:51:39;95485.66;;;13.20;66.32
3096;BME280;1558;42.700;23.360;2023-04-09T10:54:40;95525.41;;;13.43;66.35
3096;BME280;1558;42.700;23.360;2023-04-09T10:57:16;95507.53;;;13.82;65.39
3096;BME280;1558;42.700;23.360;2023-04-09T10:59:46;95512.41;;;14.04;63.09
3096;BME280;1558;42.700;23.360;2023-04-09T11:05:28;95482.53;;;14.98;61.56
3096;BME280;1558;42.700;23.360;2023-04-09T11:08:03;95471.78;;;14.36;60.17
3096;BME280;1558;42.700;23.360;2023-04-09T11:10:33;95476.78;;;13.90;62.03
3096;BME280;1558;42.700;23.360;2023-04-09T11:13:01;95491.31;;;14.13;62.18
3096;BME280;1558;42.700;23.360;2023-04-09T11:15:30;95470.81;;;13.69;60.74
3096;BME280;1558;42.700;23.360;2023-04-09T11:17:59;95498.25;;;13.40;62.33
3096;BME280;1558;42.700;23.360;2023-04-09T11:20:28;95495.16;;;13.02;64.45
3096;BME280;1558;42.700;23.360;2023-04-09T11:22:58;95496.97;;;13.10;63.92
3096;BME280;1558;42.700;23.360;2023-04-09T11:25:28;95492.13;;;12.79;62.20
3096;BME280;1558;42.700;23.360;2023-04-09T11:27:59;95487.19;;;12.69;63.64
3096;BME280;1558;42.700;23.360;2023-04-09T11:30:28;95490.00;;;12.60;63.60
3096;BME280;1558;42.700;23.360;2023-04-09T11:32:57;95490.47;;;12.26;64.42
3096;BME280;1558;42.700;23.360;2023-04-09T11:35:25;95471.06;;;12.24;65.26
3096;BME280;1558;42.700;23.360;2023-04-09T11:37:54;95433.66;;;12.14;64.79
3096;BME280;1558;42.700;23.360;2023-04-09T11:40:23;95418.31;;;12.06;64.36
3096;BME280;1558;42.700;23.360;2023-04-09T11:42:55;95476.25;;;12.41;63.69
3096;BME280;1558;42.700;23.360;2023-04-09T11:45:26;95403.91;;;12.14;64.05
3096;BME280;1558;42.700;23.360;2023-04-09T11:47:54;95475.78;;;12.75;62.94
3096;BME280;1558;42.700;23.360;2023-04-09T11:50:23;95418.09;;;12.59;63.54
3096;BME280;1558;42.700;23.360;2023-04-09T11:52:53;95476.06;;;12.98;62.99
3096;BME280;1558;42.700;23.360;2023-04-09T11:55:23;95477.53;;;12.96;56.82
3096;BME280;1558;42.700;23.360;2023-04-09T11:57:53;95448.97;;;12.58;54.63
3096;BME280;1558;42.700;23.360;2023-04-09T12:00:25;95445.34;;;12.66;54.85
3096;BME280;1558;42.700;23.360;2023-04-09T12:03:01;95472.13;;;12.96;53.49
3096;BME280;1558;42.700;23.360;2023-04-09T12:05:31;95457.81;;;12.95;54.18
3096;BME280;1558;42.700;23.360;2023-04-09T12:08:01;95423.50;;;12.59;54.02
3096;BME280;1558;42.700;23.360;2023-04-09T12:10:32;95443.34;;;13.03;54.98
3096;BME280;1558;42.700;23.360;2023-04-09T12:13:01;95337.06;;;12.27;53.29
3096;BME280;1558;42.700;23.360;2023-04-09T12:15:33;95454.88;;;13.00;53.71
3096;BME280;1558;42.700;23.360;2023-04-09T12:18:02;95454.09;;;13.12;53.88
3096;BME280;1558;42.700;23.360;2023-04-09T12:20:33;95455.22;;;13.11;53.47
3096;BME280;1558;42.700;23.360;2023-04-09T12:23:04;95435.44;;;13.10;52.91
3096;BME280;1558;42.700;23.360;2023-04-09T12:25:34;95433.31;;;13.04;52.99
3096;BME280;1558;42.700;23.360;2023-04-09T12:28:03;95443.91;;;13.21;52.70
3096;BME280;1558;42.700;23.360;2023-04-09T12:30:33;95448.44;;;13.05;52.32
3096;BME280;1558;42.700;23.360;2023-04-09T12:33:04;95428.81;;;13.08;53.81
3096;BME280;1558;42.700;23.360;2023-04-09T12:35:36;95424.22;;;13.36;53.98
3096;BME280;1558;42.700;23.360;2023-04-09T12:38:05;95437.84;;;13.39;53.24
3096;BME280;1558;42.700;23.360;2023-04-09T12:40:34;95429.94;;;13.34;52.55
3096;BME280;1558;42.700;23.360;2023-04-09T12:43:02;95330.31;;;12.72;51.27
3096;BME280;1558;42.700;23.360;2023-04-09T12:45:33;95423.59;;;13.15;52.61
3096;BME280;1558;42.700;23.360;2023-04-09T12:48:01;95430.31;;;13.33;52.68
3096;BME280;1558;42.700;23.360;2023-04-09T12:50:29;95433.09;;;13.09;53.48
3096;BME280;1558;42.700;23.360;2023-04-09T12:52:57;95428.16;;;12.86;55.14
3096;BME280;1558;42.700;23.360;2023-04-09T12:55:25;95432.13;;;12.77;54.94
3096;BME280;1558;42.700;23.360;2023-04-09T12:57:54;95388.78;;;12.49;56.38
3096;BME280;1558;42.700;23.360;2023-04-09T13:00:22;95438.31;;;12.89;55.92
3096;BME280;1558;42.700;23.360;2023-04-09T13:02:52;95439.56;;;12.92;56.31
3096;BME280;1558;42.700;23.360;2023-04-09T13:05:25;95419.91;;;12.95;55.33
3096;BME280;1558;42.700;23.360;2023-04-09T13:08:00;95424.75;;;13.02;55.34
3096;BME280;1558;42.700;23.360;2023-04-09T13:10:29;95427.59;;;12.93;54.33
3096;BME280;1558;42.700;23.360;2023-04-09T13:13:06;95423.25;;;12.64;55.19
3096;BME280;1558;42.700;23.360;2023-04-09T13:15:37;95435.19;;;12.63;55.06
3096;BME280;1558;42.700;23.360;2023-04-09T13:18:15;95438.13;;;12.58;56.03
3096;BME280;1558;42.700;23.360;2023-04-09T13:20:44;95422.94;;;12.42;57.09
3096;BME280;1558;42.700;23.360;2023-04-09T13:23:14;95438.50;;;12.45;58.20
3096;BME280;1558;42.700;23.360;2023-04-09T13:25:42;95442.66;;;12.06;60.26
3096;BME280;1558;42.700;23.360;2023-04-09T13:28:12;95434.66;;;11.97;61.35